createdAt,value
2018-05-23T00:01:17.574Z,13.60
2018-05-23T00:03:45.808Z,13.60
2018-05-23T00:06:14.119Z,13.50
2018-05-23T00:08:42.367Z,13.50
2018-05-23T00:11:10.662Z,13.50
2018-05-23T00:13:38.916Z,13.50
2018-05-23T00:16:07.206Z,13.50
2018-05-23T00:18:35.460Z,13.40
2018-05-23T00:21:04.473Z,13.40
2018-05-23T00:23:32.758Z,13.40
2018-05-23T00:26:01.036Z,13.30
2018-05-23T00:28:29.316Z,13.30
2018-05-23T00:30:57.572Z,13.30
2018-05-23T00:33:25.809Z,13.30
2018-05-23T00:35:54.060Z,13.30
2018-05-23T00:38:22.331Z,13.20
2018-05-23T00:40:50.590Z,13.20
2018-05-23T00:43:18.882Z,13.20
2018-05-23T00:45:47.144Z,13.10
2018-05-23T00:48:15.430Z,13.10
2018-05-23T00:50:43.686Z,13.10
2018-05-23T00:53:11.970Z,13.10
2018-05-23T00:55:40.620Z,13.00
2018-05-23T00:58:09.660Z,13.00
2018-05-23T01:00:37.914Z,13.00
2018-05-23T01:03:06.194Z,13.00
2018-05-23T01:05:34.470Z,13.00
2018-05-23T01:08:02.721Z,12.90
2018-05-23T01:10:31.742Z,12.90
2018-05-23T01:13:00.014Z,12.90
2018-05-23T01:15:28.303Z,12.90
2018-05-23T01:17:56.559Z,13.00
2018-05-23T01:20:24.803Z,12.90
2018-05-23T01:22:53.142Z,12.80
2018-05-23T01:25:21.380Z,12.70
2018-05-23T01:27:49.645Z,12.70
2018-05-23T01:30:18.676Z,12.50
2018-05-23T01:32:46.929Z,12.60
2018-05-23T01:35:15.271Z,12.50
2018-05-23T01:37:43.621Z,12.50
2018-05-23T01:40:11.877Z,12.50
2018-05-23T01:42:40.120Z,12.40
2018-05-23T01:45:09.137Z,12.50
2018-05-23T01:47:37.382Z,12.40
2018-05-23T01:50:06.431Z,12.40
2018-05-23T01:52:34.700Z,12.40
2018-05-23T01:55:02.949Z,12.40
2018-05-23T01:57:31.221Z,12.40
2018-05-23T01:59:59.525Z,12.40
2018-05-23T02:02:27.782Z,12.40
2018-05-23T02:04:56.080Z,12.30
2018-05-23T02:07:24.332Z,12.30
2018-05-23T02:09:52.632Z,12.30
2018-05-23T02:12:20.889Z,12.30
2018-05-23T02:14:49.182Z,12.30
2018-05-23T02:17:17.431Z,12.30
2018-05-23T02:19:45.729Z,12.30
2018-05-23T02:22:13.994Z,12.30
2018-05-23T02:24:42.233Z,12.30
2018-05-23T02:27:11.243Z,12.30
2018-05-23T02:29:39.504Z,12.30
2018-05-23T02:32:07.752Z,12.30
2018-05-23T02:34:36.006Z,12.20
2018-05-23T02:37:04.253Z,12.20
2018-05-23T02:39:32.569Z,12.20
2018-05-23T02:42:00.807Z,12.20
2018-05-23T02:44:29.099Z,12.30
2018-05-23T02:46:57.473Z,12.30
2018-05-23T02:49:25.667Z,12.30
2018-05-23T02:51:53.917Z,12.30
2018-05-23T02:54:22.214Z,12.20
2018-05-23T02:56:50.448Z,12.20
2018-05-23T02:59:18.705Z,12.20
2018-05-23T03:01:47.033Z,12.20
2018-05-23T03:04:15.318Z,12.20
2018-05-23T03:06:43.594Z,12.20
2018-05-23T03:09:12.006Z,12.20
2018-05-23T03:11:40.350Z,12.30
2018-05-23T03:14:08.591Z,12.30
2018-05-23T03:16:36.891Z,12.30
2018-05-23T03:19:05.162Z,12.30
2018-05-23T03:21:33.388Z,12.30
2018-05-23T03:24:02.436Z,12.40
2018-05-23T03:26:30.709Z,12.40
2018-05-23T03:28:58.960Z,12.50
2018-05-23T03:31:27.273Z,12.60
2018-05-23T03:33:55.548Z,12.70
2018-05-23T03:36:23.820Z,12.90
2018-05-23T03:38:52.106Z,13.00
2018-05-23T03:41:20.345Z,13.20
2018-05-23T03:43:48.701Z,13.30
2018-05-23T03:46:16.895Z,13.50
2018-05-23T03:48:46.016Z,13.80
2018-05-23T03:51:14.348Z,13.80
2018-05-23T03:53:43.394Z,14.20
2018-05-23T03:56:11.652Z,14.20
2018-05-23T03:58:39.898Z,14.40
2018-05-23T04:01:20.917Z,14.80
2018-05-23T04:04:01.164Z,14.80
2018-05-23T04:06:44.275Z,15.00
2018-05-23T04:09:12.539Z,15.20
2018-05-23T04:11:40.853Z,15.50
2018-05-23T04:14:09.091Z,15.90
2018-05-23T04:16:37.337Z,16.30
2018-05-23T04:19:05.588Z,16.70
2018-05-23T04:21:33.828Z,17.20
2018-05-23T04:24:02.136Z,17.50
2018-05-23T04:26:30.399Z,17.80
2018-05-23T04:28:59.420Z,18.20
2018-05-23T04:31:27.645Z,18.50
2018-05-23T04:33:55.931Z,18.90
2018-05-23T04:36:24.180Z,19.00
2018-05-23T04:38:52.424Z,19.10
2018-05-23T04:41:20.765Z,19.40
2018-05-23T04:43:49.009Z,19.90
2018-05-23T04:46:17.265Z,20.50
2018-05-23T04:48:46.292Z,22.10
2018-05-23T04:51:15.298Z,22.50
2018-05-23T04:53:43.542Z,22.50
2018-05-23T04:56:12.577Z,23.00
2018-05-23T04:58:40.844Z,23.00
2018-05-23T05:01:09.102Z,22.80
2018-05-23T05:03:37.356Z,22.60
2018-05-23T05:06:06.391Z,22.50
2018-05-23T05:08:34.647Z,22.50
2018-05-23T05:11:02.959Z,22.60
2018-05-23T05:13:31.319Z,22.80
2018-05-23T05:15:59.592Z,23.00
2018-05-23T05:18:27.862Z,23.10
2018-05-23T05:20:56.117Z,23.30
2018-05-23T05:23:25.116Z,23.90
2018-05-23T05:25:53.416Z,23.80
2018-05-23T05:28:21.667Z,24.00
2018-05-23T05:30:49.956Z,24.20
2018-05-23T05:33:18.204Z,24.50
2018-05-23T05:35:47.216Z,25.50
2018-05-23T05:38:15.508Z,25.50
2018-05-23T05:40:44.437Z,26.20
2018-05-23T05:43:12.671Z,26.80
2018-05-23T05:45:40.927Z,27.40
2018-05-23T05:48:09.176Z,28.10
2018-05-23T05:50:37.491Z,28.70
2018-05-23T05:53:05.773Z,28.60
2018-05-23T05:55:34.054Z,28.50
2018-05-23T05:58:02.299Z,28.60
2018-05-23T06:00:30.600Z,29.00
2018-05-23T06:02:58.845Z,29.60
2018-05-23T06:05:27.987Z,31.00
2018-05-23T06:07:56.243Z,30.90
2018-05-23T06:10:24.524Z,30.90
2018-05-23T06:12:52.780Z,31.00
2018-05-23T06:15:21.011Z,31.20
2018-05-23T06:17:49.261Z,31.20
2018-05-23T06:20:17.524Z,30.90
2018-05-23T06:22:45.810Z,30.50
2018-05-23T06:25:14.049Z,29.70
2018-05-23T06:27:42.301Z,29.10
2018-05-23T06:30:11.304Z,28.20
2018-05-23T06:32:40.331Z,28.00
2018-05-23T06:35:08.583Z,27.90
2018-05-23T06:37:36.833Z,28.60
2018-05-23T06:40:05.068Z,29.20
2018-05-23T06:42:33.336Z,29.40
2018-05-23T06:45:01.582Z,28.80
2018-05-23T06:47:29.880Z,29.20
2018-05-23T06:49:58.198Z,28.60
2018-05-23T06:52:27.136Z,27.30
2018-05-23T06:54:55.765Z,27.20
2018-05-23T06:57:24.113Z,27.20
2018-05-23T06:59:52.389Z,28.20
2018-05-23T07:02:20.637Z,28.10
2018-05-23T07:04:48.945Z,28.10
2018-05-23T07:07:17.253Z,28.50
2018-05-23T07:09:45.489Z,28.50
2018-05-23T07:12:13.769Z,28.50
2018-05-23T07:14:42.032Z,28.30
2018-05-23T07:17:10.276Z,27.50
2018-05-23T07:19:39.301Z,27.00
2018-05-23T07:22:07.536Z,27.00
2018-05-23T07:24:36.572Z,27.40
2018-05-23T07:27:04.816Z,27.30
2018-05-23T07:29:33.835Z,27.00
2018-05-23T07:32:02.132Z,27.00
2018-05-23T07:34:30.404Z,27.20
2018-05-23T07:36:58.670Z,27.00
2018-05-23T07:39:26.949Z,26.70
2018-05-23T07:41:55.223Z,27.00
2018-05-23T07:44:23.465Z,26.60
2018-05-23T07:46:52.463Z,24.60
2018-05-23T07:49:20.769Z,24.60
2018-05-23T07:51:49.103Z,25.10
2018-05-23T07:54:18.172Z,25.20
2018-05-23T07:56:46.458Z,25.10
2018-05-23T07:59:14.636Z,24.10
2018-05-23T08:01:43.676Z,23.80
2018-05-23T08:04:11.928Z,23.80
2018-05-23T08:06:40.227Z,24.10
2018-05-23T08:09:08.495Z,24.30
2018-05-23T08:11:36.785Z,24.50
2018-05-23T08:14:05.036Z,24.40
2018-05-23T08:16:33.341Z,24.40
2018-05-23T08:19:01.980Z,24.00
2018-05-23T08:21:31.701Z,24.20
2018-05-23T08:24:00.005Z,24.20
2018-05-23T08:26:28.236Z,23.80
2018-05-23T08:28:57.280Z,23.00
2018-05-23T08:31:25.531Z,23.00
2018-05-23T08:33:53.777Z,23.50
2018-05-23T08:36:22.840Z,23.60
2018-05-23T08:38:51.089Z,23.60
2018-05-23T08:41:19.339Z,23.20
2018-05-23T08:43:47.732Z,23.30
2018-05-23T08:46:16.003Z,23.50
2018-05-23T08:48:44.288Z,24.00
2018-05-23T08:51:12.576Z,24.70
2018-05-23T08:53:40.812Z,24.60
2018-05-23T08:56:09.067Z,24.10
2018-05-23T08:58:38.316Z,23.10
2018-05-23T09:01:06.588Z,23.00
2018-05-23T09:03:34.838Z,23.20
2018-05-23T09:06:03.094Z,23.90
2018-05-23T09:08:32.123Z,24.60
2018-05-23T09:11:00.412Z,24.60
2018-05-23T09:13:29.667Z,24.40
2018-05-23T09:15:58.687Z,24.20
2018-05-23T09:18:26.967Z,24.20
2018-05-23T09:20:55.248Z,23.50
2018-05-23T09:23:23.480Z,23.80
2018-05-23T09:25:52.500Z,23.70
2018-05-23T09:28:20.788Z,23.70
2018-05-23T09:30:49.037Z,24.20
2018-05-23T09:33:17.349Z,24.10
2018-05-23T09:35:45.607Z,23.80
2018-05-23T09:38:13.844Z,23.00
2018-05-23T09:40:42.870Z,23.40
2018-05-23T09:43:11.172Z,23.30
2018-05-23T09:45:39.416Z,23.90
2018-05-23T09:48:07.656Z,23.90
2018-05-23T09:50:35.927Z,23.90
2018-05-23T09:53:04.267Z,23.90
2018-05-23T09:55:32.644Z,24.20
2018-05-23T09:58:00.892Z,24.80
2018-05-23T10:00:29.133Z,25.20
2018-05-23T10:02:57.381Z,25.10
2018-05-23T10:05:25.624Z,24.90
2018-05-23T10:07:54.327Z,24.90
2018-05-23T10:10:22.606Z,24.60
2018-05-23T10:12:51.699Z,24.10
2018-05-23T10:15:19.975Z,23.90
2018-05-23T10:17:48.230Z,24.00
2018-05-23T10:20:17.443Z,24.20
2018-05-23T10:22:45.693Z,24.50
2018-05-23T10:25:14.000Z,24.20
2018-05-23T10:27:42.249Z,24.30
2018-05-23T10:30:10.492Z,24.50
2018-05-23T10:32:40.129Z,24.30
2018-05-23T10:35:08.399Z,24.30
2018-05-23T10:37:37.421Z,23.90
2018-05-23T10:40:05.695Z,23.90
2018-05-23T10:42:33.972Z,24.10
2018-05-23T10:45:02.248Z,24.30
2018-05-23T10:47:30.497Z,24.40
2018-05-23T10:49:58.812Z,24.40
2018-05-23T10:52:27.067Z,24.00
2018-05-23T10:54:55.352Z,23.80
2018-05-23T10:57:23.629Z,23.70
2018-05-23T10:59:51.892Z,23.80
2018-05-23T11:02:20.176Z,23.90
2018-05-23T11:04:48.421Z,24.10
2018-05-23T11:07:17.425Z,24.10
2018-05-23T11:09:45.673Z,24.10
2018-05-23T11:12:14.686Z,24.10
2018-05-23T11:14:42.994Z,24.00
2018-05-23T11:17:11.269Z,24.10
2018-05-23T11:19:39.549Z,24.10
2018-05-23T11:22:07.791Z,23.90
2018-05-23T11:24:36.090Z,23.80
2018-05-23T11:27:04.363Z,24.00
2018-05-23T11:29:32.611Z,24.00
2018-05-23T11:32:00.916Z,23.90
2018-05-23T11:34:29.163Z,24.00
2018-05-23T11:36:57.406Z,23.90
2018-05-23T11:39:25.652Z,23.90
2018-05-23T11:41:53.900Z,23.80
2018-05-23T11:44:22.143Z,24.10
2018-05-23T11:46:51.154Z,24.40
2018-05-23T11:49:19.558Z,24.40
2018-05-23T11:51:47.813Z,24.60
2018-05-23T11:54:16.151Z,24.20
2018-05-23T11:56:44.388Z,23.80
2018-05-23T11:59:12.638Z,23.80
2018-05-23T12:01:40.886Z,23.70
2018-05-23T12:04:09.137Z,23.70
2018-05-23T12:06:37.393Z,23.70
2018-05-23T12:09:05.651Z,23.90
2018-05-23T12:11:33.893Z,23.80
2018-05-23T12:14:02.929Z,23.70
2018-05-23T12:16:31.163Z,23.70
2018-05-23T12:19:00.181Z,23.60
2018-05-23T12:21:28.467Z,23.50
2018-05-23T12:23:56.744Z,23.80
2018-05-23T12:26:25.009Z,24.20
2018-05-23T12:28:53.266Z,24.10
2018-05-23T12:31:22.298Z,23.90
2018-05-23T12:33:50.577Z,23.90
2018-05-23T12:36:18.861Z,23.80
2018-05-23T12:38:47.099Z,23.80
2018-05-23T12:41:15.435Z,23.60
2018-05-23T12:43:43.668Z,23.50
2018-05-23T12:46:11.912Z,23.50
2018-05-23T12:48:40.171Z,23.50
2018-05-23T12:51:09.187Z,23.40
2018-05-23T12:53:37.420Z,23.30
2018-05-23T12:56:05.784Z,23.40
2018-05-23T12:58:34.041Z,23.40
2018-05-23T13:01:02.318Z,23.40
2018-05-23T13:03:30.644Z,23.30
2018-05-23T13:05:58.836Z,23.30
2018-05-23T13:08:27.137Z,23.30
2018-05-23T13:10:55.416Z,23.30
2018-05-23T13:13:23.689Z,23.40
2018-05-23T13:15:51.937Z,23.50
2018-05-23T13:18:20.236Z,23.60
2018-05-23T13:20:48.486Z,23.50
2018-05-23T13:23:16.798Z,23.50
2018-05-23T13:25:45.041Z,23.40
2018-05-23T13:28:13.281Z,23.60
2018-05-23T13:30:41.526Z,23.70
2018-05-23T13:33:09.792Z,23.70
2018-05-23T13:35:38.064Z,23.50
2018-05-23T13:38:06.317Z,23.40
2018-05-23T13:40:34.568Z,23.40
2018-05-23T13:43:02.804Z,23.40
2018-05-23T13:45:31.168Z,23.40
2018-05-23T13:47:59.424Z,23.50
2018-05-23T13:50:28.747Z,23.70
2018-05-23T13:52:56.964Z,23.50
2018-05-23T13:55:25.227Z,23.40
2018-05-23T13:57:53.472Z,23.30
2018-05-23T14:00:21.721Z,23.40
2018-05-23T14:02:49.956Z,23.40
2018-05-23T14:05:18.291Z,23.50
2018-05-23T14:07:47.944Z,23.50
2018-05-23T14:10:16.172Z,23.50
2018-05-23T14:12:44.425Z,23.60
2018-05-23T14:15:12.689Z,23.50
2018-05-23T14:17:41.699Z,23.40
2018-05-23T14:20:09.937Z,23.40
2018-05-23T14:22:38.185Z,23.50
2018-05-23T14:25:06.457Z,23.40
2018-05-23T14:27:35.093Z,23.40
2018-05-23T14:30:03.317Z,23.40
2018-05-23T14:32:31.580Z,23.30
2018-05-23T14:34:59.848Z,23.30
2018-05-23T14:37:28.106Z,23.20
2018-05-23T14:39:56.441Z,23.10
2018-05-23T14:42:24.685Z,23.30
2018-05-23T14:44:52.960Z,23.40
2018-05-23T14:47:21.218Z,23.50
2018-05-23T14:49:49.545Z,23.40
2018-05-23T14:52:17.775Z,23.20
2018-05-23T14:54:46.158Z,23.20
2018-05-23T14:57:14.404Z,23.40
2018-05-23T14:59:42.719Z,23.40
2018-05-23T15:02:10.974Z,23.30
2018-05-23T15:04:39.216Z,23.40
2018-05-23T15:07:08.237Z,23.40
2018-05-23T15:09:36.527Z,23.30
2018-05-23T15:12:04.805Z,23.40
2018-05-23T15:14:33.055Z,23.40
2018-05-23T15:17:01.352Z,23.30
2018-05-23T15:19:30.786Z,23.40
2018-05-23T15:21:59.036Z,23.50
2018-05-23T15:24:27.308Z,23.50
2018-05-23T15:26:55.623Z,23.50
2018-05-23T15:29:23.857Z,23.40
2018-05-23T15:31:52.101Z,23.30
2018-05-23T15:34:21.108Z,23.30
2018-05-23T15:36:49.362Z,23.30
2018-05-23T15:39:18.363Z,23.30
2018-05-23T15:41:46.659Z,23.30
2018-05-23T15:44:15.665Z,23.50
2018-05-23T15:46:43.940Z,23.50
2018-05-23T15:49:12.193Z,23.30
2018-05-23T15:51:40.488Z,23.40
2018-05-23T15:54:08.802Z,23.50
2018-05-23T15:56:37.039Z,23.50
2018-05-23T15:59:05.315Z,23.50
2018-05-23T16:01:33.565Z,23.40
2018-05-23T16:04:01.865Z,23.40
2018-05-23T16:06:30.180Z,23.40
2018-05-23T16:08:58.405Z,23.50
2018-05-23T16:11:26.684Z,23.40
2018-05-23T16:13:54.962Z,23.30
2018-05-23T16:16:23.203Z,23.30
2018-05-23T16:18:52.220Z,23.30
2018-05-23T16:21:20.508Z,23.30
2018-05-23T16:23:48.780Z,23.40
2018-05-23T16:26:17.066Z,23.50
2018-05-23T16:28:45.328Z,23.50
2018-05-23T16:31:13.577Z,23.40
2018-05-23T16:33:42.604Z,23.30
2018-05-23T16:36:10.850Z,23.30
2018-05-23T16:38:39.874Z,23.30
2018-05-23T16:41:08.145Z,23.30
2018-05-23T16:43:36.423Z,23.30
2018-05-23T16:46:04.703Z,23.10
2018-05-23T16:48:32.952Z,23.10
2018-05-23T16:51:01.248Z,23.10
2018-05-23T16:53:29.510Z,23.10
2018-05-23T16:55:57.752Z,23.10
2018-05-23T16:58:26.782Z,23.00
2018-05-23T17:00:55.069Z,23.00
2018-05-23T17:03:23.348Z,23.00
2018-05-23T17:05:51.618Z,23.00
2018-05-23T17:08:19.871Z,23.00
2018-05-23T17:10:48.109Z,23.00
2018-05-23T17:13:16.394Z,23.10
2018-05-23T17:15:44.720Z,23.20
2018-05-23T17:18:12.965Z,23.10
2018-05-23T17:20:41.310Z,23.00
2018-05-23T17:23:10.257Z,23.00
2018-05-23T17:25:38.537Z,23.00
2018-05-23T17:28:06.776Z,23.10
2018-05-23T17:30:35.809Z,23.20
2018-05-23T17:33:04.049Z,23.20
2018-05-23T17:35:32.351Z,23.10
2018-05-23T17:38:00.633Z,23.00
2018-05-23T17:40:28.945Z,23.00
2018-05-23T17:42:57.171Z,23.00
2018-05-23T17:45:25.423Z,22.90
2018-05-23T17:47:53.748Z,22.90
2018-05-23T17:50:22.001Z,22.80
2018-05-23T17:52:51.099Z,22.80
2018-05-23T17:55:19.376Z,22.70
2018-05-23T17:57:47.656Z,22.70
2018-05-23T18:00:15.909Z,22.60
2018-05-23T18:02:44.161Z,22.50
2018-05-23T18:05:13.403Z,22.40
2018-05-23T18:07:41.636Z,22.40
2018-05-23T18:10:10.654Z,22.40
2018-05-23T18:12:38.910Z,22.40
2018-05-23T18:15:07.932Z,22.30
2018-05-23T18:17:36.964Z,22.30
2018-05-23T18:20:05.211Z,22.20
2018-05-23T18:22:33.518Z,22.10
2018-05-23T18:25:01.747Z,22.10
2018-05-23T18:27:29.993Z,22.00
2018-05-23T18:29:59.038Z,21.90
2018-05-23T18:32:27.306Z,21.90
2018-05-23T18:34:55.676Z,21.90
2018-05-23T18:37:23.915Z,21.80
2018-05-23T18:39:53.013Z,21.60
2018-05-23T18:42:21.323Z,21.60
2018-05-23T18:44:49.568Z,21.50
2018-05-23T18:47:17.881Z,21.40
2018-05-23T18:49:46.108Z,21.30
2018-05-23T18:52:15.137Z,21.20
2018-05-23T18:54:43.376Z,21.20
2018-05-23T18:57:12.455Z,21.00
2018-05-23T18:59:40.708Z,21.00
2018-05-23T19:02:09.022Z,20.90
2018-05-23T19:04:38.055Z,20.90
2018-05-23T19:07:06.300Z,20.90
2018-05-23T19:09:34.598Z,20.80
2018-05-23T19:12:02.877Z,20.80
2018-05-23T19:14:31.115Z,20.80
2018-05-23T19:17:00.138Z,20.70
2018-05-23T19:19:28.379Z,20.70
2018-05-23T19:21:57.388Z,20.60
2018-05-23T19:24:25.687Z,20.60
2018-05-23T19:26:53.935Z,20.60
2018-05-23T19:29:22.200Z,20.50
2018-05-23T19:31:51.237Z,20.40
2018-05-23T19:34:19.476Z,20.40
2018-05-23T19:36:47.781Z,20.40
2018-05-23T19:39:16.055Z,20.40
2018-05-23T19:41:44.306Z,20.30
2018-05-23T19:44:12.544Z,20.40
2018-05-23T19:46:40.796Z,20.40
2018-05-23T19:49:09.057Z,20.30
2018-05-23T19:51:38.221Z,20.30
2018-05-23T19:54:07.273Z,20.30
2018-05-23T19:56:35.514Z,20.30
2018-05-23T19:59:03.741Z,20.30
2018-05-23T20:01:32.008Z,20.20
2018-05-23T20:04:00.259Z,20.20
2018-05-23T20:06:28.529Z,20.20
2018-05-23T20:08:56.775Z,20.20
2018-05-23T20:11:25.015Z,20.20
2018-05-23T20:13:53.355Z,20.10
2018-05-23T20:16:22.613Z,20.00
2018-05-23T20:18:51.637Z,19.90
2018-05-23T20:21:19.922Z,19.90
2018-05-23T20:23:48.190Z,19.90
2018-05-23T20:26:16.436Z,19.80
2018-05-23T20:28:44.681Z,19.80
2018-05-23T20:31:12.915Z,19.80
2018-05-23T20:33:42.092Z,19.70
2018-05-23T20:36:10.329Z,19.70
2018-05-23T20:38:39.349Z,19.60
2018-05-23T20:41:07.669Z,19.60
2018-05-23T20:43:35.915Z,19.50
2018-05-23T20:46:04.163Z,19.60
2018-05-23T20:48:33.172Z,19.60
2018-05-23T20:51:01.413Z,19.60
2018-05-23T20:53:29.662Z,19.50
2018-05-23T20:55:57.928Z,19.50
2018-05-23T20:58:26.283Z,19.50
2018-05-23T21:00:54.477Z,19.50
2018-05-23T21:03:22.719Z,19.50
2018-05-23T21:05:50.965Z,19.50
2018-05-23T21:08:19.218Z,19.40
2018-05-23T21:10:47.460Z,19.30
2018-05-23T21:13:15.708Z,19.20
2018-05-23T21:15:45.551Z,19.20
2018-05-23T21:18:13.835Z,19.20
2018-05-23T21:20:42.151Z,19.10
2018-05-23T21:23:10.390Z,19.10
2018-05-23T21:25:38.633Z,19.00
2018-05-23T21:28:06.884Z,18.90
2018-05-23T21:30:35.123Z,18.80
2018-05-23T21:33:03.384Z,18.70
2018-05-23T21:35:31.631Z,18.60
2018-05-23T21:37:59.863Z,18.60
2018-05-23T21:40:28.648Z,18.60
2018-05-23T21:42:56.896Z,18.60
2018-05-23T21:45:25.142Z,18.50
2018-05-23T21:47:53.390Z,18.50
2018-05-23T21:50:21.635Z,18.40
2018-05-23T21:52:49.883Z,18.40
2018-05-23T21:55:18.136Z,18.30
2018-05-23T21:57:47.395Z,18.20
2018-05-23T22:00:15.615Z,18.20
2018-05-23T22:02:43.925Z,18.20
2018-05-23T22:05:12.172Z,18.20
2018-05-23T22:07:40.413Z,18.20
2018-05-23T22:10:08.755Z,18.10
2018-05-23T22:12:37.035Z,18.00
2018-05-23T22:15:05.277Z,18.00
2018-05-23T22:17:33.526Z,17.90
2018-05-23T22:20:01.775Z,17.90
2018-05-23T22:22:30.038Z,18.00
2018-05-23T22:24:58.285Z,18.10
2018-05-23T22:27:26.523Z,18.10
2018-05-23T22:29:54.856Z,18.00
2018-05-23T22:32:23.136Z,18.00
2018-05-23T22:34:51.436Z,18.00
2018-05-23T22:37:19.800Z,18.00
2018-05-23T22:39:48.034Z,18.00
2018-05-23T22:42:17.040Z,17.90
2018-05-23T22:44:45.349Z,17.90
2018-05-23T22:47:13.596Z,17.90
2018-05-23T22:49:41.998Z,17.80
2018-05-23T22:52:10.267Z,17.80
2018-05-23T22:54:38.574Z,17.70
2018-05-23T22:57:06.912Z,17.70
2018-05-23T22:59:35.197Z,17.70
2018-05-23T23:02:03.439Z,17.70
2018-05-23T23:04:31.685Z,17.70
2018-05-23T23:07:00.014Z,17.70
2018-05-23T23:09:28.255Z,17.70
2018-05-23T23:11:57.393Z,17.60
2018-05-23T23:14:25.670Z,17.60
2018-05-23T23:16:54.663Z,17.60
2018-05-23T23:19:23.010Z,17.60
2018-05-23T23:21:51.256Z,17.60
2018-05-23T23:24:19.588Z,17.60
2018-05-23T23:26:47.842Z,17.50
2018-05-23T23:29:16.974Z,17.50
2018-05-23T23:31:45.333Z,17.40
2018-05-23T23:34:13.579Z,17.40
2018-05-23T23:36:42.623Z,17.30
2018-05-23T23:39:10.855Z,17.30
2018-05-23T23:41:39.110Z,17.30
2018-05-23T23:44:08.163Z,17.20
2018-05-23T23:46:36.400Z,17.20
2018-05-23T23:49:04.731Z,17.20
2018-05-23T23:51:33.084Z,17.10
2018-05-23T23:54:01.356Z,17.20
2018-05-23T23:56:29.629Z,17.10
2018-05-23T23:58:57.879Z,17.10
